Time;durP1;ratioP1;P1;durP2;ratioP2;P2;SDS_P1;SDS_P2;PMS_P1;PMS_P2;Temp;Humidity;BMP_temperature;BMP_pressure;BME280_temperature;BME280_humidity;BME280_pressure;Samples;Min_cycle;Max_cycle;Signal;HPM_P1;HPM_P2
2021/10/27 00:00:34;;;;;;;10.57;3.00;;;;;;;26.85;38.18;100469.34;5051196;28;20533;-77
2021/10/27 00:03:00;;;;;;;10.05;3.47;;;;;;;27.07;37.52;100467.69;5052575;28;20072;-77
2021/10/27 00:05:26;;;;;;;11.00;3.00;;;;;;;26.93;38.23;100459.56;5052469;28;20028;-77
2021/10/27 00:07:51;;;;;;;13.82;4.55;;;;;;;26.82;38.84;100457.75;5052502;28;20029;-77
2021/10/27 00:10:18;;;;;;;14.07;3.50;;;;;;;26.91;38.48;100468.41;5052430;28;20021;-77
2021/10/27 00:12:45;;;;;;;12.75;3.50;;;;;;;26.85;38.56;100472.94;5052310;28;20053;-77
2021/10/27 00:15:14;;;;;;;8.30;2.72;;;;;;;26.70;39.04;100468.81;5052315;28;20033;-78
2021/10/27 00:17:39;;;;;;;7.78;2.60;;;;;;;26.57;39.24;100479.84;5052385;28;20031;-77
2021/10/27 00:20:07;;;;;;;8.23;2.70;;;;;;;26.82;39.05;100473.75;5052319;28;20475;-77
2021/10/27 00:22:33;;;;;;;9.45;3.50;;;;;;;26.75;39.22;100471.91;5052071;28;20123;-77
2021/10/27 00:24:59;;;;;;;13.75;4.15;;;;;;;26.86;38.65;100463.28;5052296;28;20029;-77
2021/10/27 00:27:25;;;;;;;14.75;3.05;;;;;;;26.60;39.57;100455.78;5052280;28;20490;-77
2021/10/27 00:29:51;;;;;;;17.30;3.83;;;;;;;26.72;39.34;100460.75;5052274;28;20029;-77
2021/10/27 00:32:17;;;;;;;13.00;2.75;;;;;;;26.77;39.19;100449.84;5050761;28;20131;-77
2021/10/27 00:34:42;;;;;;;13.32;3.88;;;;;;;26.51;40.05;100465.53;5052348;28;20112;-77
2021/10/27 00:37:08;;;;;;;12.43;3.55;;;;;;;26.64;39.67;100456.53;5052196;28;20025;-77
2021/10/27 00:39:34;;;;;;;10.73;2.95;;;;;;;26.20;40.84;100455.69;5052112;28;20056;-79
2021/10/27 00:42:01;;;;;;;12.82;3.50;;;;;;;26.48;40.38;100454.41;5052144;28;20029;-77
2021/10/27 00:44:27;;;;;;;10.00;2.83;;;;;;;26.52;40.39;100447.50;5052098;28;20033;-77
2021/10/27 00:47:00;;;;;;;11.40;3.00;;;;;;;26.51;40.31;100445.16;5052150;28;20032;-78
2021/10/27 00:49:28;;;;;;;8.32;3.33;;;;;;;26.24;40.94;100448.81;5052078;28;20033;-77
2021/10/27 00:51:54;;;;;;;12.43;3.55;;;;;;;26.44;40.34;100448.09;5052038;28;20112;-77
2021/10/27 00:54:20;;;;;;;8.70;3.00;;;;;;;26.44;40.44;100437.66;5053279;28;20040;-77
2021/10/27 00:56:45;;;;;;;10.77;3.03;;;;;;;26.45;40.52;100447.69;5055947;28;20074;-80
2021/10/27 00:59:11;;;;;;;10.60;3.10;;;;;;;26.16;41.18;100444.56;5055877;28;20521;-77
2021/10/27 01:01:37;;;;;;;6.75;2.67;;;;;;;26.27;40.84;100447.94;5055778;28;20033;-77
2021/10/27 01:04:04;;;;;;;8.32;2.20;;;;;;;26.32;40.98;100443.09;5055654;28;20029;-77
2021/10/27 01:06:29;;;;;;;8.70;2.53;;;;;;;26.40;40.75;100452.97;5055663;28;20057;-78
2021/10/27 01:08:55;;;;;;;12.35;3.03;;;;;;;26.07;41.54;100441.53;5055625;28;20067;-78
2021/10/27 01:11:21;;;;;;;7.15;2.40;;;;;;;26.43;40.68;100440.91;5055633;28;20044;-77
2021/10/27 01:13:47;;;;;;;15.63;3.17;;;;;;;26.37;41.04;100448.97;5055483;28;20577;-77
2021/10/27 01:16:13;;;;;;;6.72;2.33;;;;;;;26.35;40.82;100442.22;5055532;28;20028;-77
2021/10/27 01:18:38;;;;;;;7.55;2.75;;;;;;;26.04;41.88;100428.38;5055419;28;20024;-77
2021/10/27 01:21:04;;;;;;;13.90;3.00;;;;;;;26.18;41.49;100418.94;5054192;28;20032;-77
2021/10/27 01:23:29;;;;;;;7.22;2.25;;;;;;;26.23;41.41;100432.44;5055327;28;20032;-77
2021/10/27 01:26:03;;;;;;;6.43;2.30;;;;;;;26.31;41.03;100442.31;5055318;28;20504;-77
2021/10/27 01:28:29;;;;;;;9.63;2.50;;;;;;;26.22;41.35;100448.47;5055245;28;20021;-77
2021/10/27 01:30:55;;;;;;;9.02;2.60;;;;;;;26.31;41.07;100422.69;5055064;28;20041;-77
2021/10/27 01:33:21;;;;;;;6.53;1.98;;;;;;;26.41;40.94;100432.94;5055124;28;20438;-77
2021/10/27 01:35:46;;;;;;;6.43;2.25;;;;;;;26.38;40.89;100428.16;5055143;28;20533;-77
2021/10/27 01:38:12;;;;;;;12.75;2.78;;;;;;;26.32;41.07;100440.28;5055057;28;20025;-77
2021/10/27 01:40:41;;;;;;;8.48;2.78;;;;;;;26.28;41.18;100423.53;5055004;28;20032;-77
2021/10/27 01:43:07;;;;;;;8.02;3.05;;;;;;;26.27;41.40;100433.94;5055025;28;20033;-77
2021/10/27 01:45:33;;;;;;;7.47;1.38;;;;;;;26.39;40.83;100437.41;5055006;28;20043;-77
2021/10/27 01:47:59;;;;;;;6.45;1.77;;;;;;;26.07;41.62;100424.72;5054963;28;20487;-77
2021/10/27 01:50:26;;;;;;;12.10;2.60;;;;;;;26.03;42.08;100440.78;5053938;28;20025;-77
2021/10/27 01:52:51;;;;;;;7.25;1.73;;;;;;;26.36;41.29;100447.38;5054132;28;20036;-77
2021/10/27 01:55:17;;;;;;;10.43;2.22;;;;;;;26.33;41.31;100448.25;5053500;28;20387;-78
2021/10/27 01:57:43;;;;;;;7.20;2.20;;;;;;;26.12;41.80;100438.22;5054673;28;20020;-77
2021/10/27 02:00:09;;;;;;;6.10;1.50;;;;;;;26.02;42.13;100446.81;5054507;28;20483;-77
2021/10/27 02:02:35;;;;;;;5.93;2.13;;;;;;;26.17;41.71;100445.34;5054610;28;20060;-77
2021/10/27 02:05:00;;;;;;;8.73;2.28;;;;;;;26.47;40.99;100447.25;5054093;28;20056;-77
2021/10/27 02:07:26;;;;;;;6.25;1.58;;;;;;;26.28;41.45;100443.13;5053857;28;20021;-77
2021/10/27 02:09:52;;;;;;;6.28;1.45;;;;;;;26.51;41.21;100443.13;5054480;28;20360;-77
2021/10/27 02:12:18;;;;;;;9.25;1.98;;;;;;;26.47;41.06;100448.03;5054510;28;20025;-77
2021/10/27 02:14:43;;;;;;;6.32;1.90;;;;;;;26.65;40.63;100455.28;5054356;28;20032;-77
2021/10/27 02:17:09;;;;;;;9.27;2.20;;;;;;;26.51;40.89;100456.34;5054341;28;20029;-77
2021/10/27 02:19:34;;;;;;;6.18;1.83;;;;;;;26.20;41.97;100455.69;5054351;28;20104;-77
2021/10/27 02:22:00;;;;;;;5.53;1.63;;;;;;;26.42;41.45;100468.13;5051878;28;20028;-78
2021/10/27 02:24:26;;;;;;;5.68;1.95;;;;;;;26.39;41.45;100452.19;5073469;28;20052;-77
2021/10/27 02:26:52;;;;;;;6.55;1.90;;;;;;;26.52;41.02;100469.94;5074230;28;20031;-77
2021/10/27 02:29:17;;;;;;;5.90;1.83;;;;;;;26.37;41.54;100476.97;5074163;28;20508;-77
2021/10/27 02:31:43;;;;;;;6.60;1.80;;;;;;;26.53;41.36;100476.34;5073896;28;20041;-77
2021/10/27 02:34:09;;;;;;;6.82;1.80;;;;;;;26.58;41.34;100475.03;5073995;28;20028;-77
2021/10/27 02:36:34;;;;;;;6.32;1.52;;;;;;;26.29;41.97;100469.94;5073971;28;20032;-77
2021/10/27 02:39:00;;;;;;;5.90;1.50;;;;;;;26.38;41.76;100467.38;5073936;28;20032;-77
2021/10/27 02:41:26;;;;;;;8.25;1.75;;;;;;;26.55;41.14;100459.91;5073934;28;20028;-77
2021/10/27 02:43:52;;;;;;;4.53;1.40;;;;;;;26.51;41.58;100459.94;5073795;28;20032;-77
2021/10/27 02:46:17;;;;;;;6.82;1.73;;;;;;;26.43;41.58;100446.50;5073811;28;20418;-77
2021/10/27 02:48:43;;;;;;;8.45;2.17;;;;;;;26.49;41.70;100456.78;5073684;28;20021;-77
2021/10/27 02:51:09;;;;;;;4.88;1.90;;;;;;;26.45;41.79;100446.84;5073672;28;20096;-77
2021/10/27 02:53:34;;;;;;;9.88;1.50;;;;;;;26.40;41.88;100436.97;5073563;28;20031;-78
2021/10/27 02:56:00;;;;;;;7.72;1.63;;;;;;;26.10;42.49;100440.66;5073573;28;20032;-77
2021/10/27 02:58:26;;;;;;;4.18;1.02;;;;;;;26.10;42.76;100423.06;5073525;28;20530;-77
2021/10/27 03:00:51;;;;;;;7.22;1.58;;;;;;;26.44;41.83;100434.88;5073464;28;20039;-77
2021/10/27 03:03:17;;;;;;;5.10;1.73;;;;;;;26.44;41.73;100442.47;5073435;28;20054;-78
2021/10/27 03:05:43;;;;;;;7.60;1.80;;;;;;;26.47;41.97;100441.63;5072401;28;20031;-77
2021/10/27 03:08:08;;;;;;;5.35;1.52;;;;;;;26.29;42.32;100444.72;5073264;28;20025;-77
2021/10/27 03:10:34;;;;;;;5.45;1.50;;;;;;;26.24;42.54;100443.22;5073303;28;20029;-77
2021/10/27 03:13:00;;;;;;;4.30;1.17;;;;;;;26.12;43.03;100429.81;5073150;28;20043;-77
2021/10/27 03:15:25;;;;;;;4.60;1.15;;;;;;;26.41;42.14;100432.94;5073222;28;20032;-77
2021/10/27 03:17:52;;;;;;;3.92;1.33;;;;;;;26.28;42.33;100409.53;5072938;28;20111;-77
2021/10/27 03:20:18;;;;;;;5.50;1.65;;;;;;;26.39;42.27;100424.19;5071853;28;20043;-77
2021/10/27 03:22:43;;;;;;;4.97;1.52;;;;;;;26.34;42.20;100433.03;5073004;28;20483;-77
2021/10/27 03:25:09;;;;;;;4.05;0.88;;;;;;;26.14;42.80;100418.19;5073090;28;20119;-77
2021/10/27 03:27:35;;;;;;;4.47;1.33;;;;;;;26.23;42.84;100430.44;5072972;28;20029;-77
2021/10/27 03:30:00;;;;;;;3.28;1.30;;;;;;;26.22;42.81;100436.44;5072823;28;20039;-77
2021/10/27 03:32:27;;;;;;;3.83;0.80;;;;;;;25.93;43.51;100453.75;5073004;28;20099;-77
2021/10/27 03:34:53;;;;;;;3.78;0.93;;;;;;;26.24;42.67;100448.03;5072799;28;20024;-77
2021/10/27 03:37:19;;;;;;;1.92;0.90;;;;;;;26.21;42.46;100446.06;5072809;28;20382;-77
2021/10/27 03:39:44;;;;;;;3.53;0.98;;;;;;;26.44;41.92;100437.66;5072860;28;20033;-77
2021/10/27 03:42:10;;;;;;;4.88;1.15;;;;;;;26.28;42.62;100429.94;5072881;28;20364;-77
2021/10/27 03:44:36;;;;;;;2.72;0.93;;;;;;;26.29;42.34;100419.50;5072776;28;20040;-77
2021/10/27 03:47:01;;;;;;;3.95;1.42;;;;;;;26.21;42.65;100423.66;5072753;28;20080;-77
2021/10/27 03:49:28;;;;;;;4.65;0.90;;;;;;;26.13;43.08;100441.81;5072625;28;20025;-77
2021/10/27 03:51:53;;;;;;;5.07;1.17;;;;;;;26.23;42.56;100438.84;5072679;28;20035;-78
2021/10/27 03:54:19;;;;;;;3.22;1.20;;;;;;;26.20;42.70;100436.09;5072607;28;20235;-77
2021/10/27 03:56:45;;;;;;;5.07;0.82;;;;;;;26.32;42.32;100441.06;5072604;28;20024;-77
2021/10/27 03:59:11;;;;;;;2.42;1.20;;;;;;;26.29;42.42;100439.91;5072569;28;20518;-77
2021/10/27 04:01:37;;;;;;;3.15;0.90;;;;;;;26.28;42.76;100429.13;5072671;28;20086;-77
2021/10/27 04:04:03;;;;;;;4.25;1.13;;;;;;;26.24;42.86;100420.03;5072538;28;20471;-77
2021/10/27 04:06:28;;;;;;;8.57;1.52;;;;;;;26.27;42.54;100405.94;5072557;28;20020;-78
2021/10/27 04:08:54;;;;;;;4.68;1.02;;;;;;;26.47;42.22;100403.22;5072471;28;20423;-77
2021/10/27 04:11:19;;;;;;;2.60;1.02;;;;;;;26.22;42.68;100403.66;5072551;28;20028;-78
2021/10/27 04:13:45;;;;;;;7.82;2.05;;;;;;;26.25;42.80;100411.19;5072375;28;20034;-77
2021/10/27 04:16:11;;;;;;;4.25;1.15;;;;;;;26.35;42.46;100415.00;5072332;28;20056;-77
2021/10/27 04:18:36;;;;;;;2.88;0.93;;;;;;;26.29;42.54;100417.50;5072417;28;20025;-77
2021/10/27 04:21:02;;;;;;;3.97;1.42;;;;;;;26.42;42.22;100408.50;5072401;28;20028;-78
2021/10/27 04:23:28;;;;;;;5.57;1.40;;;;;;;26.38;42.54;100414.16;5072259;28;20107;-77
2021/10/27 04:25:54;;;;;;;3.08;0.88;;;;;;;26.18;42.79;100427.34;5072304;28;20383;-77
2021/10/27 04:28:19;;;;;;;6.07;1.02;;;;;;;26.20;43.00;100431.28;5072293;28;20479;-77
2021/10/27 04:30:45;;;;;;;1.98;0.45;;;;;;;26.22;42.83;100433.66;5076086;28;20047;-77
2021/10/27 04:33:15;;;;;;;3.08;1.00;;;;;;;25.92;43.71;100429.78;5076267;28;20436;-78
2021/10/27 04:35:41;;;;;;;;;;;;;;;26.10;43.23;100429.47;5076699;28;20029;-77
2021/10/27 04:38:06;;;;;;;4.32;0.85;;;;;;;26.13;43.08;100425.81;5076373;28;19913;-77
2021/10/27 04:40:32;;;;;;;2.97;0.75;;;;;;;26.15;42.88;100442.19;5076267;28;20134;-77
2021/10/27 04:42:57;;;;;;;2.67;0.98;;;;;;;26.23;43.08;100447.25;5076219;28;20093;-77
2021/10/27 04:45:24;;;;;;;2.80;0.70;;;;;;;26.28;42.84;100438.31;5076224;28;20429;-77
2021/10/27 04:47:49;;;;;;;2.38;0.57;;;;;;;26.39;42.49;100443.00;5076055;28;20522;-77
2021/10/27 04:50:15;;;;;;;0.90;0.73;;;;;;;26.34;42.58;100441.44;5076099;28;20032;-77
2021/10/27 04:52:41;;;;;;;2.38;0.90;;;;;;;26.33;42.60;100439.06;5075941;28;20024;-77
2021/10/27 04:55:07;;;;;;;4.53;0.93;;;;;;;26.17;43.11;100437.75;5075887;28;20368;-77
2021/10/27 04:57:33;;;;;;;5.47;0.90;;;;;;;26.34;42.77;100438.63;5075880;28;20032;-77
2021/10/27 04:59:59;;;;;;;2.80;1.13;;;;;;;26.40;42.67;100434.16;5075889;28;20025;-77
2021/10/27 05:02:24;;;;;;;3.13;0.85;;;;;;;26.36;42.68;100430.59;5075871;28;20047;-77
2021/10/27 05:04:51;;;;;;;2.85;0.77;;;;;;;26.29;42.58;100437.09;5075653;28;20062;-77
2021/10/27 05:07:18;;;;;;;3.05;0.80;;;;;;;26.17;43.07;100445.34;5075754;28;20048;-77
2021/10/27 05:09:45;;;;;;;1.83;0.75;;;;;;;26.28;42.62;100437.53;5075638;28;20053;-77
2021/10/27 05:12:11;;;;;;;0.82;0.47;;;;;;;26.41;42.57;100438.53;5075629;28;20025;-77
2021/10/27 05:14:41;;;;;;;1.42;0.38;;;;;;;26.28;42.75;100431.94;5075413;28;20389;-78
2021/10/27 05:17:12;;;;;;;0.73;0.30;;;;;;;26.34;42.64;100435.03;5075548;28;20475;-77
2021/10/27 05:19:40;;;;;;;3.78;0.70;;;;;;;26.23;43.05;100438.84;5075446;28;20029;-77
2021/10/27 05:22:07;;;;;;;1.77;0.50;;;;;;;26.39;42.73;100438.19;5075427;28;20106;-77
2021/10/27 05:24:34;;;;;;;1.88;0.95;;;;;;;26.39;42.79;100435.38;5075402;28;20119;-77
2021/10/27 05:27:00;;;;;;;3.83;0.80;;;;;;;26.16;43.24;100415.78;5075289;28;20035;-78
2021/10/27 05:29:26;;;;;;;1.52;0.60;;;;;;;26.27;43.04;100436.75;5075586;28;20107;-77
2021/10/27 05:31:52;;;;;;;1.90;0.60;;;;;;;26.50;42.40;100432.38;5075031;28;20048;-77
2021/10/27 05:34:17;;;;;;;0.45;0.45;;;;;;;26.34;43.18;100435.84;5074893;28;20031;-78
2021/10/27 05:36:43;;;;;;;2.92;0.70;;;;;;;26.34;42.97;100437.84;5073894;28;20025;-78
2021/10/27 05:39:11;;;;;;;2.58;0.65;;;;;;;26.44;42.82;100411.66;5075136;28;20024;-78
2021/10/27 05:41:37;;;;;;;0.77;0.50;;;;;;;26.44;42.66;100431.28;5074930;28;20474;-77
2021/10/27 05:44:03;;;;;;;1.60;0.60;;;;;;;26.41;42.99;100426.53;5073650;28;20024;-77
2021/10/27 05:46:28;;;;;;;3.15;0.80;;;;;;;26.35;42.91;100428.22;5074812;28;20036;-77
2021/10/27 05:49:16;;;;;;;3.35;0.95;;;;;;;26.37;43.04;100436.97;5074989;28;20537;-77
2021/10/27 05:51:47;;;;;;;3.97;0.90;;;;;;;26.38;43.07;100428.16;5073626;28;20021;-76
2021/10/27 05:56:57;;;;;;;2.60;0.90;;;;;;;26.33;43.16;100425.06;5074744;28;20086;-76
2021/10/27 05:59:22;;;;;;;2.97;1.00;;;;;;;26.33;43.46;100434.25;5073480;28;20119;-76
2021/10/27 06:01:48;;;;;;;4.63;0.63;;;;;;;26.51;42.94;100437.53;5074725;28;20031;-76
2021/10/27 06:04:17;;;;;;;5.85;0.90;;;;;;;26.48;42.87;100432.81;5074690;28;20071;-76
2021/10/27 06:06:44;;;;;;;2.35;0.98;;;;;;;26.44;43.27;100437.66;5073310;28;20021;-77
2021/10/27 06:09:10;;;;;;;0.93;0.47;;;;;;;26.51;42.95;100422.72;5074240;28;20039;-77
2021/10/27 06:11:37;;;;;;;5.93;1.73;;;;;;;26.48;43.24;100420.81;5074184;28;20113;-76
2021/10/27 06:14:03;;;;;;;4.40;0.90;;;;;;;26.43;43.30;100422.09;5074385;28;20032;-76
2021/10/27 06:16:29;;;;;;;1.52;0.73;;;;;;;26.51;42.98;100415.13;5074250;28;20474;-78
2021/10/27 06:18:55;;;;;;;3.00;1.30;;;;;;;26.43;43.16;100427.69;5073099;28;20028;-78
2021/10/27 06:21:21;;;;;;;6.93;1.95;;;;;;;26.57;42.91;100414.63;5073067;28;20494;-76
2021/10/27 06:23:47;;;;;;;4.95;1.33;;;;;;;26.57;42.96;100407.00;5073181;28;20040;-77
2021/10/27 06:26:13;;;;;;;6.20;1.15;;;;;;;26.59;43.20;100398.97;5072929;28;20021;-76
2021/10/27 06:28:54;;;;;;;8.85;1.60;;;;;;;26.61;43.01;100412.56;5072846;28;20078;-76
2021/10/27 06:31:25;;;;;;;6.07;1.30;;;;;;;26.49;43.26;100413.97;5073920;28;20075;-75
2021/10/27 06:33:57;;;;;;;2.97;0.93;;;;;;;26.55;43.28;100401.06;5074019;28;20363;-73
2021/10/27 06:47:19;;;;;;;2.65;0.93;;;;;;;26.43;43.54;100402.47;5073822;28;20501;-77
2021/10/27 06:49:44;;;;;;;3.85;0.80;;;;;;;26.54;43.02;100403.06;5073838;28;20031;-77
2021/10/27 06:52:10;;;;;;;3.88;0.70;;;;;;;26.54;43.30;100405.09;5071674;28;20383;-77
2021/10/27 06:54:36;;;;;;;4.85;1.50;;;;;;;26.49;43.72;100409.16;5073655;28;20029;-77
2021/10/27 06:57:02;;;;;;;2.30;0.88;;;;;;;26.50;43.53;100419.16;5073566;28;20021;-78
2021/10/27 06:59:32;;;;;;;5.25;1.55;;;;;;;26.45;43.62;100414.06;5073499;28;20016;-78
2021/10/27 07:17:49;;;;;;;9.75;1.20;;;;;;;26.50;43.62;100421.16;5073242;28;20111;-79
2021/10/27 07:20:15;;;;;;;2.45;0.95;;;;;;;26.48;43.94;100412.41;5073363;28;20029;-78
2021/10/27 07:22:41;;;;;;;2.58;1.25;;;;;;;26.41;43.71;100413.31;5073222;28;20428;-78
2021/10/27 07:25:09;;;;;;;6.32;1.30;;;;;;;26.32;44.31;100401.09;5073195;28;20050;-78
2021/10/27 07:27:34;;;;;;;4.75;1.30;;;;;;;26.26;44.28;100409.97;5073197;28;20020;-75
2021/10/27 07:30:00;;;;;;;5.70;1.05;;;;;;;26.42;44.06;100436.53;5073013;28;20467;-76
2021/10/27 07:32:27;;;;;;;3.28;1.42;;;;;;;26.42;43.84;100437.31;5073124;28;20036;-78
2021/10/27 07:34:59;;;;;;;6.40;2.30;;;;;;;26.46;43.76;100424.03;5072980;28;20470;-78
2021/10/27 07:42:55;;;;;;;3.55;1.00;;;;;;;26.49;44.09;100428.78;5052299;28;20036;-76
2021/10/27 07:45:26;;;;;;;3.65;1.00;;;;;;;26.55;43.94;100432.66;5050585;28;20041;-75
2021/10/27 07:47:52;;;;;;;5.15;1.88;;;;;;;26.53;44.01;100437.13;5050916;28;20033;-75
2021/10/27 07:50:18;;;;;;;6.18;1.90;;;;;;;26.43;44.19;100432.50;5051612;28;20037;-74
2021/10/27 07:52:44;;;;;;;4.00;1.27;;;;;;;26.45;44.13;100436.47;5057242;28;20048;-75
2021/10/27 07:55:10;;;;;;;3.58;1.30;;;;;;;26.48;44.03;100454.41;5058145;28;20068;-77
2021/10/27 07:57:36;;;;;;;4.32;1.35;;;;;;;26.61;43.68;100451.78;5058123;28;20067;-77
2021/10/27 08:00:04;;;;;;;5.63;1.65;;;;;;;26.55;44.08;100457.09;5063540;28;20024;-77
2021/10/27 08:02:30;;;;;;;4.18;1.50;;;;;;;26.62;43.66;100461.78;5068420;28;20037;-76
2021/10/27 08:04:56;;;;;;;2.70;1.10;;;;;;;26.76;43.46;100451.06;5058927;28;20060;-78
2021/10/27 08:07:21;;;;;;;4.55;1.23;;;;;;;26.67;43.71;100455.66;5069747;28;20028;-78
2021/10/27 08:09:47;;;;;;;5.70;1.50;;;;;;;26.71;43.65;100442.38;5070104;28;20138;-79
2021/10/27 08:12:13;;;;;;;3.58;1.35;;;;;;;26.64;43.98;100446.09;5057934;28;20041;-78
2021/10/27 08:14:38;;;;;;;5.35;1.55;;;;;;;26.70;43.66;100429.59;5056792;28;20031;-78
2021/10/27 08:17:04;;;;;;;5.45;1.45;;;;;;;26.71;43.77;100440.34;5059795;28;20115;-79
2021/10/27 08:19:30;;;;;;;3.28;1.40;;;;;;;26.52;44.17;100432.72;5058154;28;20107;-75
2021/10/27 08:21:59;;;;;;;4.60;1.05;;;;;;;26.62;43.76;100419.75;5059047;28;20076;-75
2021/10/27 08:24:25;;;;;;;2.47;1.25;;;;;;;26.80;43.41;100414.56;5059420;28;20060;-78
2021/10/27 08:26:56;;;;;;;4.15;1.17;;;;;;;26.73;43.92;100409.09;5059834;28;20445;-76
2021/10/27 08:29:28;;;;;;;5.00;1.58;;;;;;;26.75;43.74;100396.25;5058465;28;20020;-79
2021/10/27 08:31:57;;;;;;;5.97;1.85;;;;;;;26.79;43.85;100399.75;5057959;28;20053;-79
2021/10/27 08:34:35;;;;;;;7.20;1.50;;;;;;;26.78;43.68;100405.78;5060880;28;20732;-76
2021/10/27 08:37:01;;;;;;;2.45;0.98;;;;;;;26.82;43.52;100403.69;5058362;28;20064;-77
2021/10/27 08:39:27;;;;;;;4.50;1.30;;;;;;;26.76;43.66;100411.06;5059342;28;20059;-77
2021/10/27 08:41:52;;;;;;;3.78;1.08;;;;;;;26.89;43.47;100399.97;5059858;28;20139;-79
2021/10/27 08:44:18;;;;;;;3.13;1.25;;;;;;;26.83;43.56;100399.69;5058906;28;20176;-75
2021/10/27 08:46:45;;;;;;;3.55;1.15;;;;;;;26.84;43.57;100395.66;5059162;28;20557;-78
2021/10/27 08:49:17;;;;;;;4.65;1.20;;;;;;;26.85;43.72;100397.25;5057074;28;20028;-76
2021/10/27 08:51:44;;;;;;;2.38;1.20;;;;;;;26.74;43.73;100391.84;5054627;28;20143;-77
2021/10/27 08:54:10;;;;;;;6.68;2.33;;;;;;;26.72;43.77;100390.69;5060403;28;20047;-75
2021/10/27 08:56:40;;;;;;;3.97;1.52;;;;;;;26.62;44.07;100386.13;5058777;28;20564;-76
2021/10/27 08:59:45;;;;;;;4.07;1.00;;;;;;;26.74;43.79;100396.66;5057376;28;20024;-77
2021/10/27 09:04:42;;;;;;;3.53;1.08;;;;;;;26.47;44.35;100408.81;5061356;28;20070;-78
2021/10/27 09:35:29;;;;;;;3.72;1.08;;;;;;;27.20;43.15;100442.56;5059669;28;20126;-76
2021/10/27 10:05:17;;;;;;;7.20;1.35;;;;;;;27.51;42.67;100455.13;5068394;28;20081;-77
2021/10/27 10:07:43;;;;;;;1.55;1.13;;;;;;;27.39;42.88;100452.97;5073722;28;20032;-77
2021/10/27 10:10:10;;;;;;;1.08;0.60;;;;;;;27.19;43.07;100438.19;5073226;28;20436;-80
2021/10/27 10:12:48;;;;;;;3.53;1.08;;;;;;;27.12;43.16;100435.53;5073930;28;20020;-78
2021/10/27 10:15:15;;;;;;;4.30;0.80;;;;;;;27.25;43.02;100450.47;5072761;28;20027;-76
2021/10/27 10:17:45;;;;;;;3.72;0.88;;;;;;;27.44;42.36;100432.84;5073767;28;20016;-79
2021/10/27 10:20:12;;;;;;;4.00;0.82;;;;;;;27.35;42.45;100416.56;5073282;28;20032;-76
2021/10/27 10:22:43;;;;;;;2.88;0.80;;;;;;;27.36;42.48;100406.16;5073661;28;20028;-76
2021/10/27 10:25:18;;;;;;;2.78;0.90;;;;;;;27.35;42.20;100402.53;5072765;28;20101;-76
2021/10/27 10:28:07;;;;;;;3.00;0.93;;;;;;;27.43;42.01;100417.19;5072778;28;20016;-88
2021/10/27 10:30:47;;;;;;;3.13;1.33;;;;;;;27.27;42.63;100442.41;5061687;28;20036;-83
2021/10/27 10:33:14;;;;;;;2.75;0.80;;;;;;;27.12;42.72;100438.34;5073031;28;20025;-78
2021/10/27 10:36:01;;;;;;;2.67;0.75;;;;;;;27.26;42.10;100424.81;5073461;28;20085;-75
2021/10/27 10:42:34;;;;;;;2.10;0.80;;;;;;;27.49;41.71;100437.13;5063249;28;20025;-75
2021/10/27 10:45:09;;;;;;;4.32;1.10;;;;;;;27.38;41.76;100437.38;5046281;28;20490;-75
2021/10/27 11:25:19;;;;;;;3.95;0.88;;;;;;;27.81;41.29;100405.50;5071782;28;20044;-78
2021/10/27 11:39:09;;;;;;;4.22;0.70;;;;;;;27.72;41.06;100326.75;5068224;28;20032;-82
2021/10/27 11:41:53;;;;;;;0.30;0.30;;;;;;;27.59;41.22;100357.53;5052799;28;20025;-78
2021/10/27 11:47:10;;;;;;;1.02;0.52;;;;;;;27.81;40.92;100392.28;5052308;28;20575;-78
2021/10/27 11:49:41;;;;;;;1.90;0.40;;;;;;;27.87;40.59;100392.50;5052075;28;20025;-77
2021/10/27 11:52:08;;;;;;;1.67;0.45;;;;;;;28.00;40.45;100399.00;5052005;28;20032;-77
2021/10/27 11:54:52;;;;;;;3.60;1.15;;;;;;;27.88;40.64;100394.88;5051925;28;20032;-77
2021/10/27 11:57:18;;;;;;;0.63;0.30;;;;;;;27.93;40.62;100380.31;5051859;28;20025;-78
2021/10/27 11:59:49;;;;;;;1.80;0.60;;;;;;;28.04;40.69;100366.00;5051952;28;20036;-76
2021/10/27 12:02:16;;;;;;;2.15;0.60;;;;;;;27.91;40.57;100342.69;5051065;28;20033;-76
2021/10/27 12:04:42;;;;;;;0.90;0.40;;;;;;;28.07;40.31;100330.63;5051216;28;20029;-76
2021/10/27 12:07:16;;;;;;;0.93;0.30;;;;;;;28.17;40.12;100352.00;5052374;28;20025;-77
2021/10/27 12:12:45;;;;;;;1.40;0.40;;;;;;;28.32;40.06;100349.63;5052412;28;20125;-77
2021/10/27 12:15:39;;;;;;;0.88;0.32;;;;;;;28.53;39.80;100348.22;5052355;28;20028;-76
2021/10/27 12:18:11;;;;;;;0.40;0.40;;;;;;;28.34;39.90;100325.50;5052345;28;20021;-80
2021/10/27 12:20:46;;;;;;;3.72;0.85;;;;;;;28.35;40.02;100329.09;5052461;28;20023;-80
2021/10/27 12:23:18;;;;;;;0.82;0.40;;;;;;;28.38;39.77;100340.22;5051087;28;20100;-81
2021/10/27 12:25:44;;;;;;;0.85;0.40;;;;;;;27.93;40.74;100329.00;5052387;28;20388;-83
2021/10/27 12:28:32;;;;;;;0.98;0.35;;;;;;;28.29;39.74;100325.22;5051000;28;20025;-77
2021/10/27 12:31:17;;;;;;;2.10;0.65;;;;;;;28.48;39.41;100327.06;5052231;28;20504;-77
2021/10/27 12:33:45;;;;;;;1.13;0.45;;;;;;;28.63;39.15;100327.44;5050953;28;20021;-77
2021/10/27 12:36:12;;;;;;;1.08;0.70;;;;;;;28.51;39.64;100343.06;5050879;28;20036;-77
2021/10/27 12:38:38;;;;;;;0.82;0.30;;;;;;;28.46;39.68;100321.13;5052228;28;20071;-79
2021/10/27 12:41:16;;;;;;;0.30;0.28;;;;;;;28.54;39.55;100310.47;5052129;28;20048;-77
2021/10/27 12:43:43;;;;;;;0.57;0.30;;;;;;;28.62;39.35;100295.75;5052275;28;20017;-77
2021/10/27 12:46:18;;;;;;;2.05;0.40;;;;;;;28.62;39.51;100297.78;5052174;28;20025;-84
2021/10/27 12:48:45;;;;;;;1.83;0.80;;;;;;;28.75;39.15;100293.75;5050782;28;20391;-77
2021/10/27 12:51:10;;;;;;;0.25;0.25;;;;;;;28.51;39.60;100298.09;5054893;28;20021;-78
2021/10/27 12:53:41;;;;;;;1.55;0.45;;;;;;;28.41;39.70;100299.19;5055903;28;20032;-77
2021/10/27 12:56:16;;;;;;;1.23;0.43;;;;;;;28.47;39.43;100280.53;5056205;28;20025;-77
2021/10/27 12:58:47;;;;;;;2.88;0.60;;;;;;;28.61;39.11;100282.94;5056011;28;20013;-77
2021/10/27 13:07:12;;;;;;;6.90;1.55;;;;;;;28.51;39.52;100272.03;5056135;28;20514;-77
2021/10/27 13:22:51;;;;;;;12.80;2.42;;;;;;;28.80;38.99;100264.28;5055682;28;20095;-80
2021/10/27 13:31:06;;;;;;;30.20;4.07;;;;;;;28.78;39.21;100249.88;5054821;28;20048;-77
2021/10/27 13:33:33;;;;;;;3.25;0.90;;;;;;;28.82;39.16;100256.19;5053899;28;20024;-78
2021/10/27 13:35:59;;;;;;;6.78;1.35;;;;;;;28.56;39.78;100249.75;5055202;28;20028;-78
2021/10/27 13:38:31;;;;;;;15.98;2.92;;;;;;;28.62;39.36;100256.41;5055042;28;20029;-84
2021/10/27 13:40:57;;;;;;;2.90;1.15;;;;;;;28.65;39.32;100251.91;5055068;28;20024;-80
2021/10/27 14:08:03;;;;;;;4.50;1.38;;;;;;;28.50;39.63;100208.63;5054781;28;20048;-77
2021/10/27 14:10:45;;;;;;;3.90;1.00;;;;;;;28.53;39.33;100208.50;5054247;28;20120;-78
2021/10/27 15:20:36;;;;;;;10.25;2.58;;;;;;;27.95;41.21;100120.78;5053493;28;20043;-79
2021/10/27 15:23:40;;;;;;;9.18;5.32;;;;;;;28.06;40.81;100130.47;5051910;28;20029;-76
2021/10/27 15:27:40;;;;;;;9.32;6.15;;;;;;;28.14;40.48;100131.81;5050002;28;20487;-76
2021/10/27 15:32:07;;;;;;;6.50;5.53;;;;;;;28.15;40.44;100124.97;5029132;28;20049;-75
2021/10/27 15:34:48;;;;;;;8.65;6.20;;;;;;;28.28;40.33;100121.38;5052854;28;20025;-76
2021/10/27 15:52:54;;;;;;;2.38;1.08;;;;;;;27.99;40.71;100111.03;5072282;28;20498;-77
2021/10/27 15:55:20;;;;;;;4.13;1.35;;;;;;;28.08;40.35;100118.78;5072092;28;20057;-78
2021/10/27 15:57:46;;;;;;;4.25;1.90;;;;;;;27.89;40.81;100123.38;5072783;28;20025;-77
2021/10/27 16:00:11;;;;;;;3.80;1.40;;;;;;;28.02;40.64;100115.72;5072715;28;20016;-77
2021/10/27 16:02:37;;;;;;;2.47;0.90;;;;;;;28.08;40.55;100110.34;5072643;28;20016;-77
2021/10/27 16:05:06;;;;;;;2.80;1.20;;;;;;;27.98;40.49;100120.69;5072699;28;20020;-78
2021/10/27 16:07:33;;;;;;;1.52;0.77;;;;;;;27.81;40.99;100128.41;5072734;28;20382;-77
2021/10/27 16:10:09;;;;;;;9.15;1.50;;;;;;;27.95;40.62;100118.75;5073246;28;20024;-87
2021/10/27 16:12:35;;;;;;;4.25;1.42;;;;;;;27.84;40.91;100132.34;5071378;28;20029;-77
2021/10/27 16:15:01;;;;;;;1.95;1.20;;;;;;;27.95;40.63;100140.44;5072465;28;20098;-78